sensor_id;sensor_type;location;lat;lon;timestamp;P1;durP1;ratioP1;P2;durP2;ratioP2
50773;SDS011;36745;48.544;8.918;2023-05-10T00:02:36;3.80;;;1.25;;
50773;SDS011;36745;48.544;8.918;2023-05-10T00:05:56;2.80;;;1.10;;
50773;SDS011;36745;48.544;8.918;2023-05-10T00:09:16;2.67;;;1.10;;
50773;SDS011;36745;48.544;8.918;2023-05-10T00:12:36;3.10;;;1.10;;
50773;SDS011;36745;48.544;8.918;2023-05-10T00:15:55;2.83;;;0.88;;
50773;SDS011;36745;48.544;8.918;2023-05-10T00:19:15;0.88;;;0.80;;
50773;SDS011;36745;48.544;8.918;2023-05-10T00:22:35;2.40;;;0.80;;
50773;SDS011;36745;48.544;8.918;2023-05-10T00:25:55;2.45;;;0.80;;
50773;SDS011;36745;48.544;8.918;2023-05-10T00:29:15;2.38;;;0.70;;
50773;SDS011;36745;48.544;8.918;2023-05-10T00:32:35;1.60;;;0.52;;
50773;SDS011;36745;48.544;8.918;2023-05-10T00:35:55;2.67;;;0.90;;
50773;SDS011;36745;48.544;8.918;2023-05-10T00:39:14;3.20;;;0.80;;
50773;SDS011;36745;48.544;8.918;2023-05-10T00:42:34;0.60;;;0.60;;
50773;SDS011;36745;48.544;8.918;2023-05-10T00:45:54;3.05;;;0.50;;
50773;SDS011;36745;48.544;8.918;2023-05-10T00:49:14;0.50;;;0.50;;
50773;SDS011;36745;48.544;8.918;2023-05-10T00:52:34;2.03;;;0.30;;
50773;SDS011;36745;48.544;8.918;2023-05-10T00:55:54;4.03;;;0.40;;
50773;SDS011;36745;48.544;8.918;2023-05-10T00:59:14;0.63;;;0.20;;
50773;SDS011;36745;48.544;8.918;2023-05-10T01:02:35;1.20;;;0.15;;
50773;SDS011;36745;48.544;8.918;2023-05-10T01:05:55;0.47;;;0.10;;
50773;SDS011;36745;48.544;8.918;2023-05-10T01:09:15;0.20;;;0.20;;
50773;SDS011;36745;48.544;8.918;2023-05-10T01:12:35;0.80;;;0.20;;
50773;SDS011;36745;48.544;8.918;2023-05-10T01:15:57;1.77;;;0.30;;
50773;SDS011;36745;48.544;8.918;2023-05-10T01:19:25;0.80;;;0.10;;
50773;SDS011;36745;48.544;8.918;2023-05-10T01:23:02;0.10;;;0.10;;
50773;SDS011;36745;48.544;8.918;2023-05-10T01:27:02;0.73;;;0.20;;
50773;SDS011;36745;48.544;8.918;2023-05-10T01:34:20;0.52;;;0.25;;
50773;SDS011;36745;48.544;8.918;2023-05-10T01:38:07;1.70;;;0.30;;
50773;SDS011;36745;48.544;8.918;2023-05-10T01:48:47;0.55;;;0.30;;
50773;SDS011;36745;48.544;8.918;2023-05-10T01:52:12;0.50;;;0.30;;
50773;SDS011;36745;48.544;8.918;2023-05-10T01:55:35;0.65;;;0.40;;
50773;SDS011;36745;48.544;8.918;2023-05-10T01:59:03;3.40;;;0.40;;
50773;SDS011;36745;48.544;8.918;2023-05-10T02:02:33;1.65;;;0.30;;
50773;SDS011;36745;48.544;8.918;2023-05-10T02:05:56;1.25;;;0.40;;
50773;SDS011;36745;48.544;8.918;2023-05-10T02:09:16;1.30;;;0.35;;
50773;SDS011;36745;48.544;8.918;2023-05-10T02:12:39;1.83;;;0.40;;
50773;SDS011;36745;48.544;8.918;2023-05-10T02:16:02;1.45;;;0.40;;
50773;SDS011;36745;48.544;8.918;2023-05-10T02:19:24;4.15;;;0.45;;
50773;SDS011;36745;48.544;8.918;2023-05-10T02:22:47;1.60;;;0.38;;
50773;SDS011;36745;48.544;8.918;2023-05-10T02:29:31;1.20;;;0.50;;
50773;SDS011;36745;48.544;8.918;2023-05-10T02:32:52;1.80;;;0.63;;
50773;SDS011;36745;48.544;8.918;2023-05-10T02:36:12;0.63;;;0.60;;
50773;SDS011;36745;48.544;8.918;2023-05-10T02:39:34;3.20;;;1.00;;
50773;SDS011;36745;48.544;8.918;2023-05-10T02:42:54;1.23;;;0.60;;
50773;SDS011;36745;48.544;8.918;2023-05-10T02:46:15;2.30;;;0.85;;
50773;SDS011;36745;48.544;8.918;2023-05-10T02:49:35;2.92;;;0.88;;
50773;SDS011;36745;48.544;8.918;2023-05-10T02:53:06;1.48;;;0.70;;
50773;SDS011;36745;48.544;8.918;2023-05-10T02:56:35;0.80;;;0.80;;
50773;SDS011;36745;48.544;8.918;2023-05-10T03:00:00;2.95;;;1.05;;
50773;SDS011;36745;48.544;8.918;2023-05-10T03:03:20;0.82;;;0.82;;
50773;SDS011;36745;48.544;8.918;2023-05-10T03:06:41;2.17;;;1.00;;
50773;SDS011;36745;48.544;8.918;2023-05-10T03:10:01;1.13;;;1.02;;
50773;SDS011;36745;48.544;8.918;2023-05-10T03:16:52;5.75;;;1.25;;
50773;SDS011;36745;48.544;8.918;2023-05-10T03:20:32;3.30;;;1.05;;
50773;SDS011;36745;48.544;8.918;2023-05-10T03:23:57;2.63;;;1.25;;
50773;SDS011;36745;48.544;8.918;2023-05-10T03:27:19;2.38;;;1.40;;
50773;SDS011;36745;48.544;8.918;2023-05-10T03:30:41;4.72;;;1.40;;
50773;SDS011;36745;48.544;8.918;2023-05-10T03:34:02;2.15;;;1.40;;
50773;SDS011;36745;48.544;8.918;2023-05-10T03:37:22;1.75;;;1.38;;
50773;SDS011;36745;48.544;8.918;2023-05-10T03:40:42;1.73;;;1.40;;
50773;SDS011;36745;48.544;8.918;2023-05-10T03:44:02;4.22;;;1.60;;
50773;SDS011;36745;48.544;8.918;2023-05-10T03:47:22;2.83;;;1.38;;
50773;SDS011;36745;48.544;8.918;2023-05-10T03:50:42;2.50;;;1.50;;
50773;SDS011;36745;48.544;8.918;2023-05-10T03:54:02;2.50;;;1.40;;
50773;SDS011;36745;48.544;8.918;2023-05-10T03:57:22;2.03;;;1.60;;
50773;SDS011;36745;48.544;8.918;2023-05-10T04:00:41;2.72;;;1.55;;
50773;SDS011;36745;48.544;8.918;2023-05-10T04:04:04;3.95;;;1.50;;
50773;SDS011;36745;48.544;8.918;2023-05-10T04:07:24;3.25;;;1.70;;
50773;SDS011;36745;48.544;8.918;2023-05-10T04:10:44;6.35;;;1.70;;
50773;SDS011;36745;48.544;8.918;2023-05-10T04:14:04;5.68;;;1.77;;
50773;SDS011;36745;48.544;8.918;2023-05-10T04:17:30;3.58;;;2.08;;
50773;SDS011;36745;48.544;8.918;2023-05-10T04:20:50;6.00;;;1.92;;
50773;SDS011;36745;48.544;8.918;2023-05-10T04:24:10;2.40;;;2.15;;
50773;SDS011;36745;48.544;8.918;2023-05-10T04:27:30;5.78;;;3.88;;
50773;SDS011;36745;48.544;8.918;2023-05-10T04:30:50;2.55;;;2.28;;
50773;SDS011;36745;48.544;8.918;2023-05-10T04:34:10;4.60;;;3.15;;
50773;SDS011;36745;48.544;8.918;2023-05-10T04:37:30;4.78;;;3.28;;
50773;SDS011;36745;48.544;8.918;2023-05-10T04:40:49;10.85;;;4.95;;
50773;SDS011;36745;48.544;8.918;2023-05-10T04:44:10;27.48;;;10.30;;
50773;SDS011;36745;48.544;8.918;2023-05-10T04:47:32;38.85;;;13.60;;
50773;SDS011;36745;48.544;8.918;2023-05-10T04:50:52;14.43;;;5.80;;
50773;SDS011;36745;48.544;8.918;2023-05-10T04:54:12;11.50;;;4.38;;
50773;SDS011;36745;48.544;8.918;2023-05-10T04:57:32;8.77;;;4.45;;
50773;SDS011;36745;48.544;8.918;2023-05-10T05:00:52;7.35;;;3.92;;
50773;SDS011;36745;48.544;8.918;2023-05-10T05:04:12;7.10;;;3.10;;
50773;SDS011;36745;48.544;8.918;2023-05-10T05:07:31;4.13;;;3.08;;
50773;SDS011;36745;48.544;8.918;2023-05-10T05:10:51;8.55;;;3.95;;
50773;SDS011;36745;48.544;8.918;2023-05-10T05:14:11;4.32;;;2.80;;
50773;SDS011;36745;48.544;8.918;2023-05-10T05:17:31;4.25;;;3.05;;
50773;SDS011;36745;48.544;8.918;2023-05-10T05:20:51;5.38;;;3.10;;
50773;SDS011;36745;48.544;8.918;2023-05-10T05:24:11;6.53;;;2.85;;
50773;SDS011;36745;48.544;8.918;2023-05-10T05:27:32;3.90;;;2.42;;
50773;SDS011;36745;48.544;8.918;2023-05-10T05:30:52;6.32;;;2.70;;
50773;SDS011;36745;48.544;8.918;2023-05-10T05:34:12;4.57;;;2.70;;
50773;SDS011;36745;48.544;8.918;2023-05-10T05:37:32;6.20;;;2.58;;
50773;SDS011;36745;48.544;8.918;2023-05-10T05:40:52;5.03;;;2.00;;
50773;SDS011;36745;48.544;8.918;2023-05-10T05:44:11;3.40;;;2.72;;
50773;SDS011;36745;48.544;8.918;2023-05-10T05:47:31;5.90;;;2.30;;
50773;SDS011;36745;48.544;8.918;2023-05-10T05:50:54;4.43;;;3.00;;
50773;SDS011;36745;48.544;8.918;2023-05-10T05:54:14;3.88;;;2.30;;
50773;SDS011;36745;48.544;8.918;2023-05-10T05:57:34;50.35;;;18.60;;
50773;SDS011;36745;48.544;8.918;2023-05-10T06:00:54;41.08;;;15.45;;
50773;SDS011;36745;48.544;8.918;2023-05-10T06:04:14;20.98;;;7.65;;
50773;SDS011;36745;48.544;8.918;2023-05-10T06:07:33;24.02;;;10.15;;
50773;SDS011;36745;48.544;8.918;2023-05-10T06:10:53;9.43;;;4.47;;
50773;SDS011;36745;48.544;8.918;2023-05-10T06:14:13;3.97;;;2.25;;
50773;SDS011;36745;48.544;8.918;2023-05-10T06:17:33;2.33;;;2.13;;
50773;SDS011;36745;48.544;8.918;2023-05-10T06:20:53;2.92;;;1.83;;
50773;SDS011;36745;48.544;8.918;2023-05-10T06:24:12;4.45;;;1.75;;
50773;SDS011;36745;48.544;8.918;2023-05-10T06:27:32;4.32;;;1.38;;
50773;SDS011;36745;48.544;8.918;2023-05-10T06:30:52;2.80;;;1.27;;
50773;SDS011;36745;48.544;8.918;2023-05-10T06:34:12;1.40;;;1.15;;
50773;SDS011;36745;48.544;8.918;2023-05-10T06:37:33;3.42;;;1.30;;
50773;SDS011;36745;48.544;8.918;2023-05-10T06:40:53;4.20;;;1.50;;
50773;SDS011;36745;48.544;8.918;2023-05-10T06:44:13;2.13;;;1.00;;
50773;SDS011;36745;48.544;8.918;2023-05-10T06:47:33;1.83;;;1.30;;
50773;SDS011;36745;48.544;8.918;2023-05-10T06:50:52;4.55;;;1.23;;
50773;SDS011;36745;48.544;8.918;2023-05-10T06:54:12;2.85;;;1.10;;
50773;SDS011;36745;48.544;8.918;2023-05-10T06:57:32;1.23;;;1.00;;
50773;SDS011;36745;48.544;8.918;2023-05-10T07:00:52;2.60;;;1.27;;
50773;SDS011;36745;48.544;8.918;2023-05-10T07:04:12;2.63;;;1.50;;
50773;SDS011;36745;48.544;8.918;2023-05-10T07:07:32;1.98;;;1.50;;
50773;SDS011;36745;48.544;8.918;2023-05-10T07:10:51;2.35;;;1.25;;
50773;SDS011;36745;48.544;8.918;2023-05-10T07:14:11;2.40;;;1.40;;
50773;SDS011;36745;48.544;8.918;2023-05-10T07:17:30;2.08;;;1.40;;
50773;SDS011;36745;48.544;8.918;2023-05-10T07:20:50;5.85;;;1.60;;
50773;SDS011;36745;48.544;8.918;2023-05-10T07:24:10;5.65;;;1.77;;
50773;SDS011;36745;48.544;8.918;2023-05-10T07:27:30;3.35;;;1.70;;
50773;SDS011;36745;48.544;8.918;2023-05-10T07:30:50;4.30;;;1.00;;
50773;SDS011;36745;48.544;8.918;2023-05-10T07:34:10;3.10;;;1.17;;
50773;SDS011;36745;48.544;8.918;2023-05-10T07:37:30;2.45;;;1.23;;
50773;SDS011;36745;48.544;8.918;2023-05-10T07:40:50;1.10;;;1.00;;
50773;SDS011;36745;48.544;8.918;2023-05-10T07:44:09;1.40;;;0.90;;
50773;SDS011;36745;48.544;8.918;2023-05-10T07:47:29;1.05;;;0.70;;
50773;SDS011;36745;48.544;8.918;2023-05-10T07:50:49;0.70;;;0.70;;
50773;SDS011;36745;48.544;8.918;2023-05-10T07:54:09;3.20;;;0.73;;
50773;SDS011;36745;48.544;8.918;2023-05-10T07:57:28;1.60;;;0.77;;
50773;SDS011;36745;48.544;8.918;2023-05-10T08:00:48;0.60;;;0.60;;
50773;SDS011;36745;48.544;8.918;2023-05-10T08:04:08;1.25;;;0.60;;
50773;SDS011;36745;48.544;8.918;2023-05-10T08:07:28;0.82;;;0.40;;
50773;SDS011;36745;48.544;8.918;2023-05-10T08:10:48;0.40;;;0.40;;
50773;SDS011;36745;48.544;8.918;2023-05-10T08:14:07;1.65;;;0.57;;
50773;SDS011;36745;48.544;8.918;2023-05-10T08:17:27;0.80;;;0.40;;
50773;SDS011;36745;48.544;8.918;2023-05-10T08:20:47;0.80;;;0.40;;
50773;SDS011;36745;48.544;8.918;2023-05-10T08:24:07;0.77;;;0.50;;
50773;SDS011;36745;48.544;8.918;2023-05-10T08:27:27;1.38;;;0.85;;
50773;SDS011;36745;48.544;8.918;2023-05-10T08:31:02;0.38;;;0.28;;
50773;SDS011;36745;48.544;8.918;2023-05-10T08:34:23;1.42;;;0.40;;
50773;SDS011;36745;48.544;8.918;2023-05-10T08:37:43;0.40;;;0.30;;
50773;SDS011;36745;48.544;8.918;2023-05-10T08:41:03;0.55;;;0.50;;
50773;SDS011;36745;48.544;8.918;2023-05-10T08:44:24;0.35;;;0.30;;
50773;SDS011;36745;48.544;8.918;2023-05-10T08:47:44;2.53;;;0.40;;
50773;SDS011;36745;48.544;8.918;2023-05-10T08:51:04;1.27;;;0.30;;
50773;SDS011;36745;48.544;8.918;2023-05-10T08:54:25;0.45;;;0.30;;
50773;SDS011;36745;48.544;8.918;2023-05-10T08:57:45;3.33;;;0.50;;
50773;SDS011;36745;48.544;8.918;2023-05-10T09:01:05;0.40;;;0.40;;
50773;SDS011;36745;48.544;8.918;2023-05-10T09:04:27;1.55;;;0.30;;
50773;SDS011;36745;48.544;8.918;2023-05-10T09:07:47;3.13;;;0.40;;
50773;SDS011;36745;48.544;8.918;2023-05-10T09:11:06;2.08;;;0.30;;
50773;SDS011;36745;48.544;8.918;2023-05-10T09:14:28;1.70;;;0.52;;
50773;SDS011;36745;48.544;8.918;2023-05-10T09:17:50;3.63;;;0.60;;
50773;SDS011;36745;48.544;8.918;2023-05-10T09:21:10;1.25;;;0.38;;
50773;SDS011;36745;48.544;8.918;2023-05-10T09:24:30;1.15;;;0.50;;
50773;SDS011;36745;48.544;8.918;2023-05-10T09:27:50;2.40;;;0.30;;
50773;SDS011;36745;48.544;8.918;2023-05-10T09:31:11;0.57;;;0.30;;
50773;SDS011;36745;48.544;8.918;2023-05-10T09:34:31;0.40;;;0.40;;
50773;SDS011;36745;48.544;8.918;2023-05-10T09:37:54;0.93;;;0.30;;
50773;SDS011;36745;48.544;8.918;2023-05-10T09:41:16;1.85;;;0.35;;
50773;SDS011;36745;48.544;8.918;2023-05-10T09:44:37;1.10;;;0.28;;
50773;SDS011;36745;48.544;8.918;2023-05-10T09:47:57;1.95;;;0.40;;
50773;SDS011;36745;48.544;8.918;2023-05-10T09:51:21;3.40;;;0.40;;
50773;SDS011;36745;48.544;8.918;2023-05-10T09:54:52;1.83;;;0.40;;
50773;SDS011;36745;48.544;8.918;2023-05-10T09:58:13;1.05;;;0.43;;
50773;SDS011;36745;48.544;8.918;2023-05-10T10:01:33;0.30;;;0.30;;
50773;SDS011;36745;48.544;8.918;2023-05-10T10:04:54;1.17;;;0.43;;
50773;SDS011;36745;48.544;8.918;2023-05-10T10:08:14;1.85;;;0.60;;
50773;SDS011;36745;48.544;8.918;2023-05-10T10:11:36;1.00;;;0.55;;
50773;SDS011;36745;48.544;8.918;2023-05-10T10:14:57;3.72;;;0.50;;
50773;SDS011;36745;48.544;8.918;2023-05-10T10:18:20;1.90;;;0.52;;
50773;SDS011;36745;48.544;8.918;2023-05-10T10:21:47;0.60;;;0.50;;
50773;SDS011;36745;48.544;8.918;2023-05-10T10:25:07;0.47;;;0.45;;
50773;SDS011;36745;48.544;8.918;2023-05-10T10:36:22;0.50;;;0.40;;
50773;SDS011;36745;48.544;8.918;2023-05-10T10:39:42;1.23;;;0.52;;
50773;SDS011;36745;48.544;8.918;2023-05-10T10:43:21;1.08;;;0.30;;
50773;SDS011;36745;48.544;8.918;2023-05-10T10:50:30;1.75;;;0.40;;
50773;SDS011;36745;48.544;8.918;2023-05-10T10:53:50;2.33;;;0.35;;
50773;SDS011;36745;48.544;8.918;2023-05-10T10:57:14;2.50;;;0.40;;
50773;SDS011;36745;48.544;8.918;2023-05-10T11:00:37;1.10;;;0.35;;
50773;SDS011;36745;48.544;8.918;2023-05-10T11:07:19;3.90;;;1.92;;
50773;SDS011;36745;48.544;8.918;2023-05-10T11:10:39;2.05;;;0.50;;
50773;SDS011;36745;48.544;8.918;2023-05-10T11:14:08;1.70;;;0.47;;
50773;SDS011;36745;48.544;8.918;2023-05-10T11:17:27;2.22;;;0.50;;
50773;SDS011;36745;48.544;8.918;2023-05-10T11:20:50;1.27;;;0.57;;
50773;SDS011;36745;48.544;8.918;2023-05-10T11:24:21;1.88;;;0.70;;
50773;SDS011;36745;48.544;8.918;2023-05-10T11:27:42;2.00;;;0.60;;
50773;SDS011;36745;48.544;8.918;2023-05-10T11:31:02;0.93;;;0.47;;
50773;SDS011;36745;48.544;8.918;2023-05-10T11:34:23;2.08;;;0.60;;
50773;SDS011;36745;48.544;8.918;2023-05-10T11:37:43;1.90;;;0.60;;
50773;SDS011;36745;48.544;8.918;2023-05-10T11:41:10;3.33;;;0.77;;
50773;SDS011;36745;48.544;8.918;2023-05-10T11:44:31;1.90;;;0.68;;
50773;SDS011;36745;48.544;8.918;2023-05-10T11:47:52;3.30;;;1.10;;
50773;SDS011;36745;48.544;8.918;2023-05-10T11:51:11;3.90;;;0.65;;
50773;SDS011;36745;48.544;8.918;2023-05-10T11:54:31;2.35;;;1.00;;
50773;SDS011;36745;48.544;8.918;2023-05-10T11:57:51;2.15;;;0.77;;
50773;SDS011;36745;48.544;8.918;2023-05-10T12:01:12;2.60;;;0.60;;
50773;SDS011;36745;48.544;8.918;2023-05-10T12:04:32;1.38;;;0.90;;
50773;SDS011;36745;48.544;8.918;2023-05-10T12:07:52;1.67;;;0.70;;
50773;SDS011;36745;48.544;8.918;2023-05-10T12:11:12;1.85;;;0.70;;
50773;SDS011;36745;48.544;8.918;2023-05-10T12:14:36;2.28;;;0.70;;
50773;SDS011;36745;48.544;8.918;2023-05-10T12:17:56;5.47;;;0.80;;
50773;SDS011;36745;48.544;8.918;2023-05-10T12:21:16;1.67;;;0.70;;
50773;SDS011;36745;48.544;8.918;2023-05-10T12:24:36;2.13;;;0.80;;
50773;SDS011;36745;48.544;8.918;2023-05-10T12:27:57;3.63;;;1.00;;
50773;SDS011;36745;48.544;8.918;2023-05-10T12:31:20;2.63;;;0.77;;
50773;SDS011;36745;48.544;8.918;2023-05-10T12:34:40;1.20;;;0.65;;
50773;SDS011;36745;48.544;8.918;2023-05-10T12:38:00;3.17;;;0.80;;
50773;SDS011;36745;48.544;8.918;2023-05-10T12:41:20;1.58;;;0.75;;
50773;SDS011;36745;48.544;8.918;2023-05-10T12:44:40;2.55;;;1.00;;
50773;SDS011;36745;48.544;8.918;2023-05-10T12:48:00;3.50;;;0.80;;
50773;SDS011;36745;48.544;8.918;2023-05-10T12:51:20;5.07;;;1.00;;
50773;SDS011;36745;48.544;8.918;2023-05-10T12:54:41;3.00;;;1.00;;
50773;SDS011;36745;48.544;8.918;2023-05-10T12:58:01;2.53;;;0.90;;
50773;SDS011;36745;48.544;8.918;2023-05-10T13:01:26;2.20;;;0.98;;
50773;SDS011;36745;48.544;8.918;2023-05-10T13:04:46;5.07;;;0.82;;
50773;SDS011;36745;48.544;8.918;2023-05-10T13:08:07;6.43;;;1.40;;
50773;SDS011;36745;48.544;8.918;2023-05-10T13:11:26;1.35;;;0.73;;
50773;SDS011;36745;48.544;8.918;2023-05-10T13:14:47;6.50;;;1.52;;
50773;SDS011;36745;48.544;8.918;2023-05-10T13:18:06;3.63;;;0.70;;
50773;SDS011;36745;48.544;8.918;2023-05-10T13:21:26;2.58;;;0.90;;
50773;SDS011;36745;48.544;8.918;2023-05-10T13:24:46;3.47;;;1.05;;
50773;SDS011;36745;48.544;8.918;2023-05-10T13:28:06;3.35;;;1.08;;
50773;SDS011;36745;48.544;8.918;2023-05-10T13:31:26;3.58;;;0.70;;
50773;SDS011;36745;48.544;8.918;2023-05-10T13:34:46;4.75;;;0.93;;
50773;SDS011;36745;48.544;8.918;2023-05-10T13:38:06;2.85;;;0.80;;
50773;SDS011;36745;48.544;8.918;2023-05-10T13:41:26;3.05;;;1.00;;
50773;SDS011;36745;48.544;8.918;2023-05-10T13:44:46;3.70;;;0.90;;
50773;SDS011;36745;48.544;8.918;2023-05-10T13:48:06;0.93;;;0.80;;
50773;SDS011;36745;48.544;8.918;2023-05-10T13:51:26;16.92;;;5.30;;
50773;SDS011;36745;48.544;8.918;2023-05-10T13:54:46;2.80;;;1.20;;
50773;SDS011;36745;48.544;8.918;2023-05-10T13:58:05;2.90;;;1.00;;
50773;SDS011;36745;48.544;8.918;2023-05-10T14:01:25;2.38;;;0.93;;
50773;SDS011;36745;48.544;8.918;2023-05-10T14:04:45;3.70;;;0.70;;
50773;SDS011;36745;48.544;8.918;2023-05-10T14:08:05;2.17;;;1.35;;
50773;SDS011;36745;48.544;8.918;2023-05-10T14:11:25;2.30;;;0.85;;
50773;SDS011;36745;48.544;8.918;2023-05-10T14:14:44;10.95;;;4.80;;
50773;SDS011;36745;48.544;8.918;2023-05-10T14:18:04;2.60;;;1.23;;
50773;SDS011;36745;48.544;8.918;2023-05-10T14:21:24;3.28;;;1.00;;
50773;SDS011;36745;48.544;8.918;2023-05-10T14:24:44;3.90;;;0.82;;
50773;SDS011;36745;48.544;8.918;2023-05-10T14:28:06;2.65;;;0.95;;
50773;SDS011;36745;48.544;8.918;2023-05-10T14:31:25;2.05;;;0.88;;
50773;SDS011;36745;48.544;8.918;2023-05-10T14:34:45;4.82;;;1.10;;
50773;SDS011;36745;48.544;8.918;2023-05-10T14:38:05;2.83;;;0.70;;
50773;SDS011;36745;48.544;8.918;2023-05-10T14:41:25;1.85;;;0.63;;
50773;SDS011;36745;48.544;8.918;2023-05-10T14:44:45;1.38;;;0.70;;
50773;SDS011;36745;48.544;8.918;2023-05-10T14:48:05;1.55;;;0.80;;
50773;SDS011;36745;48.544;8.918;2023-05-10T14:51:24;1.80;;;0.63;;
50773;SDS011;36745;48.544;8.918;2023-05-10T14:54:44;3.95;;;0.80;;
50773;SDS011;36745;48.544;8.918;2023-05-10T14:58:04;0.57;;;0.55;;
50773;SDS011;36745;48.544;8.918;2023-05-10T15:01:24;1.90;;;0.73;;
50773;SDS011;36745;48.544;8.918;2023-05-10T15:04:44;4.60;;;0.77;;
50773;SDS011;36745;48.544;8.918;2023-05-10T15:08:04;0.93;;;0.50;;
50773;SDS011;36745;48.544;8.918;2023-05-10T15:11:24;2.10;;;0.60;;
50773;SDS011;36745;48.544;8.918;2023-05-10T15:14:44;4.35;;;0.77;;
50773;SDS011;36745;48.544;8.918;2023-05-10T15:18:04;3.70;;;1.05;;
50773;SDS011;36745;48.544;8.918;2023-05-10T15:21:24;2.55;;;0.73;;
50773;SDS011;36745;48.544;8.918;2023-05-10T15:24:44;1.77;;;0.63;;
50773;SDS011;36745;48.544;8.918;2023-05-10T15:28:04;2.80;;;0.52;;
50773;SDS011;36745;48.544;8.918;2023-05-10T15:31:24;2.83;;;1.02;;
50773;SDS011;36745;48.544;8.918;2023-05-10T15:34:44;5.38;;;2.60;;
50773;SDS011;36745;48.544;8.918;2023-05-10T15:38:03;3.70;;;1.27;;
50773;SDS011;36745;48.544;8.918;2023-05-10T15:41:23;3.72;;;0.88;;
50773;SDS011;36745;48.544;8.918;2023-05-10T15:44:43;3.35;;;0.80;;
50773;SDS011;36745;48.544;8.918;2023-05-10T15:48:04;4.45;;;0.95;;
50773;SDS011;36745;48.544;8.918;2023-05-10T15:51:24;2.45;;;0.80;;
50773;SDS011;36745;48.544;8.918;2023-05-10T15:54:44;1.27;;;0.60;;
50773;SDS011;36745;48.544;8.918;2023-05-10T15:58:04;2.90;;;0.73;;
50773;SDS011;36745;48.544;8.918;2023-05-10T16:01:23;3.60;;;0.90;;
50773;SDS011;36745;48.544;8.918;2023-05-10T16:04:44;2.05;;;1.00;;
50773;SDS011;36745;48.544;8.918;2023-05-10T16:08:03;3.22;;;0.70;;
50773;SDS011;36745;48.544;8.918;2023-05-10T16:11:23;2.75;;;0.70;;
50773;SDS011;36745;48.544;8.918;2023-05-10T16:14:43;1.35;;;0.75;;
50773;SDS011;36745;48.544;8.918;2023-05-10T16:18:03;5.95;;;1.10;;
50773;SDS011;36745;48.544;8.918;2023-05-10T16:21:23;3.67;;;1.15;;
50773;SDS011;36745;48.544;8.918;2023-05-10T16:24:42;1.63;;;1.02;;
50773;SDS011;36745;48.544;8.918;2023-05-10T16:28:02;3.40;;;1.10;;
50773;SDS011;36745;48.544;8.918;2023-05-10T16:31:22;2.05;;;0.90;;
50773;SDS011;36745;48.544;8.918;2023-05-10T16:34:42;4.50;;;0.70;;
50773;SDS011;36745;48.544;8.918;2023-05-10T16:38:02;0.50;;;0.50;;
50773;SDS011;36745;48.544;8.918;2023-05-10T16:41:22;2.47;;;0.50;;
50773;SDS011;36745;48.544;8.918;2023-05-10T16:44:42;1.63;;;0.40;;
50773;SDS011;36745;48.544;8.918;2023-05-10T16:48:01;0.82;;;0.50;;
50773;SDS011;36745;48.544;8.918;2023-05-10T16:51:22;3.15;;;0.43;;
50773;SDS011;36745;48.544;8.918;2023-05-10T16:54:42;1.27;;;0.40;;
50773;SDS011;36745;48.544;8.918;2023-05-10T16:58:01;1.10;;;0.93;;
50773;SDS011;36745;48.544;8.918;2023-05-10T17:01:21;1.15;;;0.63;;
50773;SDS011;36745;48.544;8.918;2023-05-10T17:04:41;0.80;;;0.60;;
50773;SDS011;36745;48.544;8.918;2023-05-10T17:08:01;1.30;;;0.70;;
50773;SDS011;36745;48.544;8.918;2023-05-10T17:11:21;4.80;;;1.00;;
50773;SDS011;36745;48.544;8.918;2023-05-10T17:14:40;4.70;;;0.85;;
50773;SDS011;36745;48.544;8.918;2023-05-10T17:18:01;1.95;;;0.50;;
50773;SDS011;36745;48.544;8.918;2023-05-10T17:21:20;0.57;;;0.50;;
50773;SDS011;36745;48.544;8.918;2023-05-10T17:24:40;2.10;;;0.60;;
50773;SDS011;36745;48.544;8.918;2023-05-10T17:28:00;0.55;;;0.52;;
50773;SDS011;36745;48.544;8.918;2023-05-10T17:31:20;0.55;;;0.52;;
50773;SDS011;36745;48.544;8.918;2023-05-10T17:34:40;0.60;;;0.60;;
50773;SDS011;36745;48.544;8.918;2023-05-10T17:38:00;0.95;;;0.52;;
50773;SDS011;36745;48.544;8.918;2023-05-10T17:41:20;4.00;;;1.13;;
50773;SDS011;36745;48.544;8.918;2023-05-10T17:44:40;3.92;;;0.85;;
50773;SDS011;36745;48.544;8.918;2023-05-10T17:47:59;2.08;;;0.82;;
50773;SDS011;36745;48.544;8.918;2023-05-10T17:51:19;4.57;;;1.60;;
50773;SDS011;36745;48.544;8.918;2023-05-10T17:54:39;2.15;;;1.20;;
50773;SDS011;36745;48.544;8.918;2023-05-10T17:57:59;1.67;;;0.90;;
50773;SDS011;36745;48.544;8.918;2023-05-10T18:01:19;2.88;;;0.80;;
50773;SDS011;36745;48.544;8.918;2023-05-10T18:04:39;4.68;;;1.13;;
50773;SDS011;36745;48.544;8.918;2023-05-10T18:07:59;2.78;;;1.00;;
50773;SDS011;36745;48.544;8.918;2023-05-10T18:11:18;1.10;;;0.70;;
50773;SDS011;36745;48.544;8.918;2023-05-10T18:14:38;1.15;;;0.73;;
50773;SDS011;36745;48.544;8.918;2023-05-10T18:18:02;2.22;;;0.77;;
50773;SDS011;36745;48.544;8.918;2023-05-10T18:21:25;1.63;;;0.85;;
50773;SDS011;36745;48.544;8.918;2023-05-10T18:24:45;1.05;;;0.90;;
50773;SDS011;36745;48.544;8.918;2023-05-10T18:28:05;1.27;;;0.50;;
50773;SDS011;36745;48.544;8.918;2023-05-10T18:31:26;2.20;;;0.60;;
50773;SDS011;36745;48.544;8.918;2023-05-10T18:34:46;2.63;;;0.70;;
50773;SDS011;36745;48.544;8.918;2023-05-10T18:38:06;2.25;;;0.57;;
50773;SDS011;36745;48.544;8.918;2023-05-10T18:41:28;5.03;;;1.30;;
50773;SDS011;36745;48.544;8.918;2023-05-10T18:44:48;7.38;;;0.90;;
50773;SDS011;36745;48.544;8.918;2023-05-10T18:48:07;2.63;;;0.80;;
50773;SDS011;36745;48.544;8.918;2023-05-10T18:51:27;1.10;;;1.00;;
50773;SDS011;36745;48.544;8.918;2023-05-10T18:54:50;5.33;;;2.40;;
50773;SDS011;36745;48.544;8.918;2023-05-10T18:58:11;5.38;;;0.90;;
50773;SDS011;36745;48.544;8.918;2023-05-10T19:01:31;3.15;;;0.95;;
50773;SDS011;36745;48.544;8.918;2023-05-10T19:04:50;3.00;;;0.80;;
50773;SDS011;36745;48.544;8.918;2023-05-10T19:08:10;2.55;;;0.65;;
50773;SDS011;36745;48.544;8.918;2023-05-10T19:11:30;2.33;;;0.98;;
50773;SDS011;36745;48.544;8.918;2023-05-10T19:14:52;3.40;;;1.38;;
50773;SDS011;36745;48.544;8.918;2023-05-10T19:18:12;1.88;;;0.98;;
50773;SDS011;36745;48.544;8.918;2023-05-10T19:21:31;3.05;;;1.00;;
50773;SDS011;36745;48.544;8.918;2023-05-10T19:24:51;1.95;;;0.70;;
50773;SDS011;36745;48.544;8.918;2023-05-10T19:28:11;3.22;;;0.90;;
50773;SDS011;36745;48.544;8.918;2023-05-10T19:31:31;2.90;;;1.00;;
50773;SDS011;36745;48.544;8.918;2023-05-10T19:34:52;1.10;;;0.77;;
50773;SDS011;36745;48.544;8.918;2023-05-10T19:38:12;3.05;;;1.10;;
50773;SDS011;36745;48.544;8.918;2023-05-10T19:41:32;1.50;;;1.00;;
50773;SDS011;36745;48.544;8.918;2023-05-10T19:44:52;6.22;;;1.67;;
50773;SDS011;36745;48.544;8.918;2023-05-10T19:48:12;1.38;;;0.95;;
50773;SDS011;36745;48.544;8.918;2023-05-10T19:51:31;1.60;;;1.10;;
50773;SDS011;36745;48.544;8.918;2023-05-10T19:54:51;0.90;;;0.90;;
50773;SDS011;36745;48.544;8.918;2023-05-10T19:58:11;1.58;;;1.27;;
50773;SDS011;36745;48.544;8.918;2023-05-10T20:01:31;4.18;;;1.02;;
50773;SDS011;36745;48.544;8.918;2023-05-10T20:04:51;2.42;;;1.00;;
50773;SDS011;36745;48.544;8.918;2023-05-10T20:08:11;2.80;;;1.40;;
50773;SDS011;36745;48.544;8.918;2023-05-10T20:11:31;2.13;;;1.00;;
50773;SDS011;36745;48.544;8.918;2023-05-10T20:14:52;1.58;;;0.80;;
50773;SDS011;36745;48.544;8.918;2023-05-10T20:18:12;4.43;;;1.20;;
50773;SDS011;36745;48.544;8.918;2023-05-10T20:21:32;1.10;;;1.00;;
50773;SDS011;36745;48.544;8.918;2023-05-10T20:24:52;3.20;;;1.35;;
50773;SDS011;36745;48.544;8.918;2023-05-10T20:28:11;6.32;;;1.95;;
50773;SDS011;36745;48.544;8.918;2023-05-10T20:31:31;4.45;;;1.80;;
50773;SDS011;36745;48.544;8.918;2023-05-10T20:34:51;6.38;;;3.10;;
50773;SDS011;36745;48.544;8.918;2023-05-10T20:38:11;3.15;;;2.85;;
50773;SDS011;36745;48.544;8.918;2023-05-10T20:41:31;5.60;;;1.75;;
50773;SDS011;36745;48.544;8.918;2023-05-10T20:44:51;3.67;;;1.10;;